createdAt,value
2023-03-12T00:01:21.097Z,-0.57
2023-03-12T00:03:50.393Z,-0.59
2023-03-12T00:06:20.258Z,-0.61
2023-03-12T00:08:49.192Z,-0.61
2023-03-12T00:11:22.063Z,-0.60
2023-03-12T00:13:52.794Z,-0.62
2023-03-12T00:16:22.329Z,-0.61
2023-03-12T00:18:52.717Z,-0.63
2023-03-12T00:21:22.437Z,-0.62
2023-03-12T00:23:52.345Z,-0.63
2023-03-12T00:26:23.637Z,-0.59
2023-03-12T00:28:52.324Z,-0.60
2023-03-12T00:31:23.909Z,-0.58
2023-03-12T00:33:52.495Z,-0.57
2023-03-12T00:36:24.965Z,-0.56
2023-03-12T00:38:54.129Z,-0.56
2023-03-12T00:41:24.814Z,-0.57
2023-03-12T00:43:53.384Z,-0.57
2023-03-12T00:46:23.107Z,-0.58
2023-03-12T00:48:51.849Z,-0.59
2023-03-12T00:51:20.891Z,-0.59
2023-03-12T00:53:49.350Z,-0.60
2023-03-12T00:56:17.960Z,-0.59
2023-03-12T00:58:47.893Z,-0.59
2023-03-12T01:01:16.887Z,-0.60
2023-03-12T01:03:45.416Z,-0.60
2023-03-12T01:06:14.168Z,-0.59
2023-03-12T01:08:42.601Z,-0.58
2023-03-12T01:11:14.997Z,-0.54
2023-03-12T01:13:43.429Z,-0.52
2023-03-12T01:16:13.434Z,-0.51
2023-03-12T01:18:42.042Z,-0.51
2023-03-12T01:21:10.513Z,-0.50
2023-03-12T01:23:39.898Z,-0.51
2023-03-12T01:26:08.337Z,-0.49
2023-03-12T01:28:36.768Z,-0.48
2023-03-12T01:31:09.474Z,-0.49
2023-03-12T01:33:39.342Z,-0.48
2023-03-12T01:36:19.965Z,-0.47
2023-03-12T01:38:48.887Z,-0.45
2023-03-12T01:41:17.405Z,-0.42
2023-03-12T01:43:47.268Z,-0.42
2023-03-12T01:46:29.678Z,-0.36
2023-03-12T01:49:08.276Z,-0.36
2023-03-12T01:51:41.419Z,-0.35
2023-03-12T01:54:14.865Z,-0.34
2023-03-12T01:56:43.933Z,-0.31
2023-03-12T01:59:17.283Z,-0.27
2023-03-12T02:01:46.894Z,-0.27
2023-03-12T02:04:19.030Z,-0.23
2023-03-12T02:06:54.504Z,-0.22
2023-03-12T02:09:23.603Z,-0.21
2023-03-12T02:11:52.068Z,-0.18
2023-03-12T02:14:20.702Z,-0.16
2023-03-12T02:16:49.389Z,-0.13
2023-03-12T02:19:28.787Z,-0.12
2023-03-12T02:21:58.169Z,-0.11
2023-03-12T02:24:35.005Z,-0.11
2023-03-12T02:27:06.331Z,-0.13
2023-03-12T02:29:37.000Z,-0.13
2023-03-12T02:32:07.075Z,-0.12
2023-03-12T02:34:36.077Z,-0.12
2023-03-12T02:37:04.686Z,-0.13
2023-03-12T02:39:33.235Z,-0.09
2023-03-12T02:42:02.164Z,-0.09
2023-03-12T02:44:36.622Z,-0.09
2023-03-12T02:47:05.925Z,-0.10
2023-03-12T02:49:36.306Z,-0.11
2023-03-12T02:52:05.808Z,-0.14
2023-03-12T02:54:34.278Z,-0.16
2023-03-12T02:57:02.920Z,-0.17
2023-03-12T02:59:32.835Z,-0.17
2023-03-12T03:02:02.589Z,-0.18
2023-03-12T03:04:32.414Z,-0.18
2023-03-12T03:07:00.789Z,-0.18
2023-03-12T03:09:29.283Z,-0.16
2023-03-12T03:11:57.727Z,-0.17
2023-03-12T03:14:26.541Z,-0.16
2023-03-12T03:16:56.773Z,-0.12
2023-03-12T03:19:25.308Z,-0.14
2023-03-12T03:21:53.807Z,-0.11
2023-03-12T03:24:22.383Z,-0.08
2023-03-12T03:26:50.866Z,-0.03
2023-03-12T03:29:19.570Z,0.01
2023-03-12T03:31:47.983Z,0.04
2023-03-12T03:34:17.967Z,0.07
2023-03-12T03:36:46.392Z,0.09
2023-03-12T03:39:14.852Z,0.11
2023-03-12T03:41:43.181Z,0.12
2023-03-12T03:44:12.168Z,0.13
2023-03-12T03:46:40.918Z,0.13
2023-03-12T03:49:09.372Z,0.13
2023-03-12T03:51:42.151Z,0.14
2023-03-12T03:54:10.679Z,0.15
2023-03-12T03:56:39.615Z,0.15
2023-03-12T03:59:08.622Z,0.19
2023-03-12T04:01:37.403Z,0.20
2023-03-12T04:04:06.805Z,0.19
2023-03-12T04:06:35.283Z,0.20
2023-03-12T04:09:05.514Z,0.23
2023-03-12T04:11:35.994Z,0.26
2023-03-12T04:14:04.401Z,0.26
2023-03-12T04:16:32.795Z,0.26
2023-03-12T04:19:01.229Z,0.25
2023-03-12T04:21:29.891Z,0.26
2023-03-12T04:23:58.454Z,0.26
2023-03-12T04:26:28.626Z,0.26
2023-03-12T04:28:57.237Z,0.29
2023-03-12T04:31:25.637Z,0.35
2023-03-12T04:33:54.497Z,0.35
2023-03-12T04:36:23.839Z,0.37
2023-03-12T04:38:52.281Z,0.37
2023-03-12T04:41:20.760Z,0.40
2023-03-12T04:43:50.589Z,0.40
2023-03-12T04:46:19.643Z,0.44
2023-03-12T04:51:16.923Z,0.53
2023-03-12T04:53:45.380Z,0.55
2023-03-12T04:56:14.398Z,0.58
2023-03-12T04:58:42.865Z,0.59
2023-03-12T05:01:25.140Z,0.59
2023-03-12T05:03:54.668Z,0.61
2023-03-12T05:06:25.073Z,0.61
2023-03-12T05:08:54.091Z,0.63
2023-03-12T05:11:23.139Z,0.59
2023-03-12T05:13:51.700Z,0.57
2023-03-12T05:16:21.580Z,0.58
2023-03-12T05:18:50.524Z,0.55
2023-03-12T05:21:21.485Z,0.55
2023-03-12T05:23:50.073Z,0.55
2023-03-12T05:26:21.476Z,0.53
2023-03-12T05:28:50.442Z,0.55
2023-03-12T05:31:21.763Z,0.57
2023-03-12T05:33:52.764Z,0.57
2023-03-12T05:36:22.400Z,0.58
2023-03-12T05:38:50.729Z,0.62
2023-03-12T05:41:22.651Z,0.61
2023-03-12T05:43:51.235Z,0.66
2023-03-12T05:46:21.357Z,0.68
2023-03-12T05:48:49.790Z,0.67
2023-03-12T05:51:18.368Z,0.68
2023-03-12T05:53:46.976Z,0.70
2023-03-12T05:56:18.234Z,0.73
2023-03-12T05:58:50.014Z,0.75
2023-03-12T06:01:22.933Z,0.75
2023-03-12T06:03:51.449Z,0.75
2023-03-12T06:06:20.470Z,0.77
2023-03-12T06:08:48.903Z,0.76
2023-03-12T06:11:17.471Z,0.79
2023-03-12T06:13:45.951Z,0.80
2023-03-12T06:16:19.095Z,0.81
2023-03-12T06:18:49.690Z,0.82
2023-03-12T06:21:20.820Z,0.84
2023-03-12T06:23:50.155Z,0.83
2023-03-12T06:26:19.439Z,0.87
2023-03-12T06:28:49.773Z,0.93
2023-03-12T06:31:19.671Z,0.98
2023-03-12T06:33:50.124Z,1.09
2023-03-12T06:36:18.789Z,1.14
2023-03-12T06:38:47.397Z,1.16
2023-03-12T06:41:18.640Z,1.24
2023-03-12T06:43:47.954Z,1.27
2023-03-12T06:46:21.831Z,1.28
2023-03-12T06:48:51.664Z,1.25
2023-03-12T06:51:20.140Z,1.22
2023-03-12T06:53:48.584Z,1.19
2023-03-12T06:56:17.010Z,1.20
2023-03-12T06:58:45.411Z,1.23
2023-03-12T07:01:15.052Z,1.27
2023-03-12T07:03:43.430Z,1.28
2023-03-12T07:06:17.658Z,1.31
2023-03-12T07:08:46.698Z,1.38
2023-03-12T07:11:15.375Z,1.44
2023-03-12T07:13:43.924Z,1.49
2023-03-12T07:16:12.957Z,1.54
2023-03-12T07:18:41.433Z,1.66
2023-03-12T07:21:09.983Z,1.80
2023-03-12T07:23:39.703Z,1.85
2023-03-12T07:26:08.207Z,1.96
2023-03-12T07:28:36.605Z,1.99
2023-03-12T07:31:06.095Z,2.04
2023-03-12T07:33:34.627Z,2.15
2023-03-12T07:36:03.473Z,2.32
2023-03-12T07:38:32.605Z,2.49
2023-03-12T07:41:02.427Z,2.65
2023-03-12T07:43:31.031Z,2.70
2023-03-12T07:45:59.492Z,2.78
2023-03-12T07:48:27.978Z,2.87
2023-03-12T07:50:56.476Z,3.02
2023-03-12T07:53:24.996Z,3.09
2023-03-12T07:55:54.932Z,3.11
2023-03-12T07:58:25.018Z,3.15
2023-03-12T08:00:55.765Z,3.28
2023-03-12T08:03:24.754Z,3.29
2023-03-12T08:06:02.244Z,3.34
2023-03-12T08:08:31.537Z,3.38
2023-03-12T08:11:00.972Z,3.43
2023-03-12T08:13:30.886Z,3.44
2023-03-12T08:15:59.367Z,3.43
2023-03-12T08:18:28.493Z,3.47
2023-03-12T08:20:56.855Z,3.59
2023-03-12T08:23:26.647Z,3.62
2023-03-12T08:25:55.996Z,3.54
2023-03-12T08:28:26.129Z,3.37
2023-03-12T08:31:00.028Z,3.38
2023-03-12T08:33:28.657Z,3.50
2023-03-12T08:35:57.295Z,3.48
2023-03-12T08:38:25.954Z,3.49
2023-03-12T08:40:59.009Z,3.58
2023-03-12T08:43:29.516Z,3.57
2023-03-12T08:46:01.523Z,3.75
2023-03-12T08:48:32.314Z,3.79
2023-03-12T08:51:04.436Z,3.72
2023-03-12T08:53:35.525Z,3.67
2023-03-12T08:56:05.527Z,3.65
2023-03-12T08:58:33.877Z,3.87
2023-03-12T09:01:03.682Z,4.03
2023-03-12T09:03:32.367Z,4.04
2023-03-12T09:06:13.224Z,4.01
2023-03-12T09:08:41.854Z,4.02
2023-03-12T09:11:11.901Z,4.02
2023-03-12T09:14:02.802Z,4.10
2023-03-12T09:16:31.316Z,5.82
2023-03-12T09:18:59.707Z,8.42
2023-03-12T09:21:28.230Z,8.64
2023-03-12T09:23:56.997Z,8.13
2023-03-12T09:26:25.491Z,8.29
2023-03-12T09:28:53.979Z,9.06
2023-03-12T09:31:22.888Z,8.82
2023-03-12T09:33:52.767Z,10.50
2023-03-12T09:36:21.175Z,14.53
2023-03-12T09:38:49.921Z,16.35
2023-03-12T09:41:22.379Z,16.94
2023-03-12T09:43:58.929Z,16.47
2023-03-12T09:46:34.438Z,14.85
2023-03-12T09:49:12.417Z,13.13
2023-03-12T09:51:45.704Z,11.50
2023-03-12T09:54:26.039Z,10.15
2023-03-12T09:56:56.222Z,10.13
2023-03-12T09:59:24.890Z,9.49
2023-03-12T10:01:59.512Z,8.73
2023-03-12T10:04:58.843Z,7.81
2023-03-12T10:07:36.821Z,7.05
2023-03-12T10:10:20.860Z,6.39
2023-03-12T10:13:11.435Z,5.76
2023-03-12T10:15:50.066Z,5.29
2023-03-12T10:18:34.658Z,4.95
2023-03-12T10:21:18.926Z,4.65
2023-03-12T10:24:06.880Z,4.39
2023-03-12T10:26:40.882Z,4.17
2023-03-12T10:29:17.185Z,4.00
2023-03-12T10:31:55.649Z,3.81
2023-03-12T10:34:32.330Z,3.72
2023-03-12T10:37:14.067Z,4.04
2023-03-12T10:39:42.983Z,4.26
2023-03-12T10:42:18.170Z,4.29
2023-03-12T10:44:50.064Z,4.25
2023-03-12T10:47:36.632Z,4.19
2023-03-12T10:50:17.716Z,4.18
2023-03-12T10:52:50.488Z,4.07
2023-03-12T10:55:26.332Z,3.98
2023-03-12T10:57:55.374Z,3.97
2023-03-12T11:00:26.845Z,4.17
2023-03-12T11:03:03.544Z,4.28
2023-03-12T11:05:35.309Z,4.29
2023-03-12T11:08:20.417Z,4.16
2023-03-12T11:10:49.598Z,7.18
2023-03-12T11:13:29.942Z,12.89
2023-03-12T11:16:00.017Z,15.49
2023-03-12T11:18:35.785Z,18.28
2023-03-12T11:21:19.699Z,19.57
2023-03-12T11:24:09.020Z,19.46
2023-03-12T11:26:48.448Z,20.27
2023-03-12T11:29:27.218Z,22.05
2023-03-12T11:32:07.312Z,23.48
2023-03-12T11:34:39.388Z,22.79
2023-03-12T11:37:15.356Z,23.36
2023-03-12T11:40:10.970Z,23.20
2023-03-12T11:42:59.300Z,21.40
2023-03-12T11:45:36.053Z,18.69
2023-03-12T11:48:17.175Z,16.19
2023-03-12T11:51:00.016Z,13.96
2023-03-12T11:53:47.624Z,12.28
2023-03-12T11:56:28.243Z,11.03
2023-03-12T11:59:19.714Z,9.98
2023-03-12T12:02:04.653Z,9.57
2023-03-12T12:05:02.483Z,9.07
2023-03-12T12:07:47.419Z,8.49
2023-03-12T12:10:29.208Z,8.02
2023-03-12T12:13:11.358Z,7.48
2023-03-12T12:15:53.089Z,6.99
2023-03-12T12:18:56.323Z,7.16
2023-03-12T12:21:49.398Z,7.15
2023-03-12T12:24:49.436Z,6.92
2023-03-12T12:27:22.598Z,7.77
2023-03-12T12:30:11.426Z,10.40
2023-03-12T12:33:04.892Z,11.48
2023-03-12T12:35:37.987Z,12.21
2023-03-12T12:38:14.452Z,12.69
2023-03-12T12:40:48.936Z,11.97
2023-03-12T12:43:29.077Z,10.94
2023-03-12T12:46:03.826Z,9.94
2023-03-12T12:48:37.839Z,9.09
2023-03-12T12:51:09.371Z,8.57
2023-03-12T12:53:49.541Z,9.25
2023-03-12T12:56:27.876Z,9.44
2023-03-12T12:59:23.397Z,8.94
2023-03-12T13:01:56.228Z,8.34
2023-03-12T13:04:29.761Z,7.71
2023-03-12T13:07:03.495Z,7.18
2023-03-12T13:09:43.507Z,6.68
2023-03-12T13:12:21.051Z,6.29
2023-03-12T13:14:50.940Z,6.64
2023-03-12T13:18:06.426Z,7.81
2023-03-12T13:20:46.924Z,7.72
2023-03-12T13:23:34.522Z,7.36
2023-03-12T13:26:09.389Z,6.99
2023-03-12T13:29:11.252Z,6.58
2023-03-12T13:31:42.484Z,6.14
2023-03-12T13:34:48.753Z,6.05
2023-03-12T13:38:04.989Z,6.34
2023-03-12T13:41:02.415Z,6.48
2023-03-12T13:43:52.721Z,6.72
2023-03-12T13:46:46.007Z,6.64
2023-03-12T13:49:20.668Z,6.49
2023-03-12T13:52:17.253Z,6.30
2023-03-12T13:54:49.719Z,6.43
2023-03-12T13:57:37.831Z,6.60
2023-03-12T14:00:18.256Z,6.74
2023-03-12T14:02:53.240Z,6.77
2023-03-12T14:05:22.845Z,6.70
2023-03-12T14:08:15.614Z,6.54
2023-03-12T14:11:04.419Z,6.43
2023-03-12T14:13:53.886Z,6.30
2023-03-12T14:16:31.725Z,6.25
2023-03-12T14:19:00.697Z,6.27
2023-03-12T14:21:35.186Z,6.28
2023-03-12T14:24:07.609Z,6.22
2023-03-12T14:26:38.341Z,6.08
2023-03-12T14:29:16.036Z,5.95
2023-03-12T14:31:44.844Z,5.88
2023-03-12T14:34:21.203Z,5.81
2023-03-12T14:36:59.279Z,5.71
2023-03-12T14:39:34.589Z,5.57
2023-03-12T14:42:06.068Z,5.40
2023-03-12T14:44:37.712Z,5.25
2023-03-12T14:47:10.224Z,5.11
2023-03-12T14:49:43.060Z,5.02
2023-03-12T14:52:13.532Z,4.94
2023-03-12T14:54:56.336Z,4.86
2023-03-12T14:57:24.933Z,4.84
2023-03-12T14:59:58.046Z,4.77
2023-03-12T15:02:28.247Z,4.71
2023-03-12T15:05:00.158Z,4.63
2023-03-12T15:07:33.544Z,4.58
2023-03-12T15:10:07.387Z,4.52
2023-03-12T15:12:38.754Z,4.46
2023-03-12T15:15:11.769Z,4.37
2023-03-12T15:17:40.368Z,4.32
2023-03-12T15:20:16.612Z,4.28
2023-03-12T15:22:45.989Z,4.27
2023-03-12T15:25:26.290Z,4.28
2023-03-12T15:28:24.931Z,4.30
2023-03-12T15:31:15.724Z,4.33
2023-03-12T15:33:45.592Z,4.32
2023-03-12T15:36:33.092Z,4.33
2023-03-12T15:39:05.910Z,4.29
2023-03-12T15:41:47.979Z,4.26
2023-03-12T15:44:22.118Z,4.27
2023-03-12T15:46:53.769Z,4.29
2023-03-12T15:49:30.285Z,4.29
2023-03-12T15:52:07.836Z,4.30
2023-03-12T15:54:40.609Z,4.28
2023-03-12T15:57:34.921Z,4.26
2023-03-12T16:00:25.066Z,4.26
2023-03-12T16:02:59.379Z,4.23
2023-03-12T16:05:32.342Z,4.18
2023-03-12T16:08:03.969Z,4.17
2023-03-12T16:10:38.758Z,4.17
2023-03-12T16:13:11.672Z,4.17
2023-03-12T16:15:41.051Z,4.13
2023-03-12T16:18:14.672Z,4.09
2023-03-12T16:20:43.834Z,4.03
2023-03-12T16:23:12.584Z,4.00
2023-03-12T16:25:43.217Z,3.95
2023-03-12T16:28:17.887Z,3.91
2023-03-12T16:30:46.406Z,3.88
